Swink, Colorado
Current Conditions -  °F | °C
As of 5:53 PM on Monday 20 Oct 2014 (Local Time) from KLHX Reporting Station
Clear Clear  
Wind Chill: 70°   Ceiling: Unl
Heat Index: 70°   Visibility: 10mi
Dew Point: 41°   Wind: 12mph
Humidity: 35%   Direction: 130°SE
Pressure: 30.09"   Gusts: NA
Location:  38.01°N, 103.63°W
Report Text: KLHX 202353Z AUTO 13010KT 10SM CLR 21/05 A3009 RMK AO2 SLP156 T02110050 10244 20200 57005
Loading
Personal Weather Stations






























Interactive Weather Map
Tropical Storm Tracking
New forecast layout! Learn more

10-Day Weather Forecast

Advertisements
Track Severe Weather on mobile